Time;durP1;ratioP1;P1;durP2;ratioP2;P2;SDS_P1;SDS_P2;PMS_P1;PMS_P2;Temp;Humidity;BMP_temperature;BMP_pressure;BME280_temperature;BME280_humidity;BME280_pressure;Samples;Min_cycle;Max_cycle;Signal;HPM_P1;HPM_P2
2022/03/21 00:00:29;;;;;;;15.75;10.88;;;;;;;8.62;85.30;101031.94;5018032;28;20040;-88
2022/03/21 00:02:55;;;;;;;13.70;10.25;;;;;;;8.62;85.31;101027.47;4998711;28;20403;-88
2022/03/21 00:05:21;;;;;;;15.43;10.90;;;;;;;8.59;85.29;101040.13;5016809;28;20022;-88
2022/03/21 00:07:46;;;;;;;15.27;11.00;;;;;;;8.56;85.71;101041.19;5001072;28;20032;-88
2022/03/21 00:10:11;;;;;;;16.23;10.98;;;;;;;8.54;85.52;101042.22;4999722;28;20091;-88
2022/03/21 00:12:39;;;;;;;16.42;11.77;;;;;;;8.48;85.75;101046.97;5000458;28;20036;-88
2022/03/21 00:15:06;;;;;;;17.10;11.40;;;;;;;8.51;86.28;101059.25;5015742;28;20120;-87
2022/03/21 00:17:33;;;;;;;15.52;11.20;;;;;;;8.52;85.90;101053.00;5001383;28;20040;-88
2022/03/21 00:19:59;;;;;;;16.98;11.88;;;;;;;8.47;85.69;101055.06;4999793;28;20112;-88
2022/03/21 00:22:24;;;;;;;18.05;11.88;;;;;;;8.48;85.70;101060.31;5001437;28;20129;-88
2022/03/21 00:24:50;;;;;;;18.65;11.82;;;;;;;8.62;85.75;101055.94;5000798;28;20030;-88
2022/03/21 00:27:15;;;;;;;17.02;11.68;;;;;;;8.60;85.72;101053.34;5001258;28;21102;-87
2022/03/21 00:29:41;;;;;;;16.13;11.48;;;;;;;8.58;85.29;101057.94;5015918;28;20488;-88
2022/03/21 00:32:07;;;;;;;15.27;11.30;;;;;;;8.56;85.34;101059.00;5015775;28;20113;-88
2022/03/21 00:34:32;;;;;;;13.90;10.50;;;;;;;8.58;85.59;101071.25;5002616;28;20033;-88
2022/03/21 00:36:57;;;;;;;15.95;11.65;;;;;;;8.61;85.41;101067.53;5016135;28;20026;-87
2022/03/21 00:39:23;;;;;;;14.93;11.02;;;;;;;8.55;85.18;101068.78;5000766;28;20087;-88
2022/03/21 00:41:49;;;;;;;16.70;11.50;;;;;;;8.55;85.59;101063.47;4999896;28;20060;-88
2022/03/21 00:44:14;;;;;;;18.55;11.95;;;;;;;8.52;85.17;101059.19;5000094;28;20116;-88
2022/03/21 00:46:40;;;;;;;15.10;10.98;;;;;;;8.51;85.52;101068.13;5001863;28;20056;-87
2022/03/21 00:49:08;;;;;;;16.52;11.00;;;;;;;8.55;85.21;101060.78;5017124;28;20017;-88
2022/03/21 00:51:33;;;;;;;15.50;10.20;;;;;;;8.59;85.22;101056.97;4999781;28;20762;-88
2022/03/21 00:53:59;;;;;;;15.38;10.98;;;;;;;8.62;85.05;101059.44;5000581;28;20172;-88
2022/03/21 00:56:24;;;;;;;15.80;10.45;;;;;;;8.62;85.24;101064.78;5016738;28;20038;-88
2022/03/21 00:58:49;;;;;;;15.80;10.93;;;;;;;8.59;85.06;101062.31;4999414;28;20067;-88
2022/03/21 01:01:15;;;;;;;18.33;11.50;;;;;;;8.58;84.90;101065.94;4999587;28;20645;-88
2022/03/21 01:03:40;;;;;;;14.93;10.95;;;;;;;8.56;85.04;101072.31;4999660;28;20122;-88
2022/03/21 01:06:05;;;;;;;15.88;11.18;;;;;;;8.54;85.29;101069.75;5000010;28;20056;-88
2022/03/21 01:08:31;;;;;;;17.48;11.30;;;;;;;8.56;85.30;101078.50;5001108;28;20033;-88
2022/03/21 01:10:56;;;;;;;14.23;10.52;;;;;;;8.69;84.90;101070.56;4998155;28;20088;-88
2022/03/21 01:13:21;;;;;;;15.38;10.68;;;;;;;8.68;84.75;101077.72;4999649;28;20483;-88
2022/03/21 01:15:47;;;;;;;14.82;11.43;;;;;;;8.66;84.65;101076.97;4998886;28;20038;-88
2022/03/21 01:18:12;;;;;;;18.23;12.38;;;;;;;8.63;84.72;101074.50;4999657;28;20029;-87
2022/03/21 01:20:38;;;;;;;15.48;10.70;;;;;;;8.62;84.69;101074.59;5001059;28;20491;-88
2022/03/21 01:23:03;;;;;;;17.42;11.32;;;;;;;8.58;84.39;101073.94;4999245;28;20029;-88
2022/03/21 01:25:28;;;;;;;16.45;11.27;;;;;;;8.59;84.33;101069.47;5000966;28;20033;-88
2022/03/21 01:27:54;;;;;;;15.88;10.60;;;;;;;8.66;84.36;101081.44;5015412;28;20049;-88
2022/03/21 01:30:19;;;;;;;16.13;10.55;;;;;;;8.75;84.03;101083.50;4998358;28;20025;-88
2022/03/21 01:32:45;;;;;;;16.13;11.63;;;;;;;8.70;83.78;101080.28;4999487;28;20581;-87
2022/03/21 01:35:12;;;;;;;16.50;11.00;;;;;;;8.66;83.67;101076.97;4999501;28;20037;-88
2022/03/21 01:37:38;;;;;;;15.95;11.13;;;;;;;8.61;83.67;101070.22;5031489;28;20022;-88
2022/03/21 01:40:04;;;;;;;14.35;10.40;;;;;;;8.58;83.72;101075.75;4998458;28;20040;-88
2022/03/21 01:42:29;;;;;;;16.88;10.65;;;;;;;8.54;83.40;101072.41;5014712;28;20038;-88
2022/03/21 01:44:58;;;;;;;13.35;9.68;;;;;;;8.52;83.81;101064.53;4998308;28;20435;-88
2022/03/21 01:47:24;;;;;;;13.40;9.77;;;;;;;8.49;83.46;101070.00;5016795;28;20438;-88
2022/03/21 01:49:50;;;;;;;16.55;10.55;;;;;;;8.45;83.51;101073.81;4999219;28;20033;-88
2022/03/21 01:52:16;;;;;;;13.07;9.77;;;;;;;8.40;84.09;101075.94;4999714;28;20446;-88
2022/03/21 01:57:26;;;;;;;13.82;10.15;;;;;;;8.34;84.00;101073.66;5015733;28;20088;-88
2022/03/21 01:59:51;;;;;;;13.55;10.20;;;;;;;8.29;84.19;101066.88;4999119;28;20474;-88
2022/03/21 02:02:29;;;;;;;14.48;10.75;;;;;;;8.22;84.14;101071.72;4998242;28;20064;-88
2022/03/21 02:04:54;;;;;;;13.35;10.27;;;;;;;8.23;83.94;101068.09;4999339;28;20033;-88
2022/03/21 02:07:20;;;;;;;15.10;10.50;;;;;;;8.22;84.18;101077.06;4998879;28;20034;-88
2022/03/21 02:09:45;;;;;;;15.35;10.55;;;;;;;8.21;84.27;101067.34;5015575;28;20110;-88
2022/03/21 02:12:11;;;;;;;13.90;10.25;;;;;;;8.19;83.92;101066.59;4999657;28;21027;-88
2022/03/21 02:14:39;;;;;;;12.32;9.52;;;;;;;8.19;84.48;101062.13;4998294;28;20046;-88
2022/03/21 02:17:05;;;;;;;13.77;10.05;;;;;;;8.24;84.31;101061.81;4999745;28;20033;-89
2022/03/21 02:19:32;;;;;;;14.40;10.48;;;;;;;8.24;83.75;101059.16;4998491;28;20455;-88
2022/03/21 02:21:57;;;;;;;15.95;10.30;;;;;;;8.24;83.90;101052.97;5014951;28;20506;-87
2022/03/21 02:24:46;;;;;;;16.20;10.00;;;;;;;8.23;83.66;101057.44;5014273;28;20069;-88
2022/03/21 02:27:12;;;;;;;14.10;9.80;;;;;;;8.24;83.60;101060.97;5030549;28;20045;-88
2022/03/21 02:29:38;;;;;;;12.90;9.63;;;;;;;8.27;83.36;101064.28;4999519;28;20088;-87
2022/03/21 02:32:05;;;;;;;13.20;9.82;;;;;;;8.28;83.69;101055.34;4996251;28;20030;-88
2022/03/21 02:34:31;;;;;;;14.20;10.10;;;;;;;8.29;83.24;101061.53;5007423;28;20163;-88
2022/03/21 02:37:00;;;;;;;14.52;10.38;;;;;;;8.29;83.37;101065.06;5014271;28;20505;-88
2022/03/21 02:39:28;;;;;;;14.80;10.73;;;;;;;8.28;82.78;101067.81;5015789;28;20060;-88
2022/03/21 02:41:54;;;;;;;14.00;9.93;;;;;;;8.29;82.92;101077.53;4998122;28;20029;-88
2022/03/21 02:44:19;;;;;;;15.35;10.27;;;;;;;8.26;83.04;101067.06;5015441;28;20034;-88
2022/03/21 02:46:46;;;;;;;13.82;10.07;;;;;;;8.28;82.86;101063.34;4998294;28;20038;-88
2022/03/21 02:49:11;;;;;;;14.07;10.00;;;;;;;8.29;82.54;101066.88;5000400;28;20035;-88
2022/03/21 02:51:39;;;;;;;15.48;10.13;;;;;;;8.26;82.95;101067.91;5000701;28;20466;-88
2022/03/21 02:54:05;;;;;;;14.07;10.13;;;;;;;8.26;82.98;101070.56;5015686;28;20053;-88
2022/03/21 02:56:30;;;;;;;15.35;10.13;;;;;;;8.21;82.03;101064.69;5000616;28;20461;-88
2022/03/21 02:59:03;;;;;;;18.55;10.30;;;;;;;8.13;82.35;101062.50;5002345;28;20030;-88
2022/03/21 03:01:28;;;;;;;15.30;10.30;;;;;;;8.12;82.74;101059.94;5009327;28;20478;-88
2022/03/21 03:03:53;;;;;;;14.50;9.50;;;;;;;8.05;83.22;101058.59;5002210;28;20041;-88
2022/03/21 03:06:19;;;;;;;14.05;10.23;;;;;;;8.05;82.71;101055.94;5018658;28;20034;-88
2022/03/21 03:08:44;;;;;;;12.25;8.93;;;;;;;8.02;83.42;101061.41;5000788;28;20029;-88
2022/03/21 03:11:11;;;;;;;15.32;10.50;;;;;;;7.97;83.51;101060.84;5009841;28;20044;-88
2022/03/21 03:13:36;;;;;;;14.80;10.25;;;;;;;7.95;82.72;101062.75;5002400;28;20034;-88
2022/03/21 03:16:02;;;;;;;14.27;9.60;;;;;;;7.90;82.98;101055.03;5017744;28;20075;-88
2022/03/21 03:18:27;;;;;;;12.63;9.50;;;;;;;7.90;82.53;101063.03;5002513;28;20041;-88
2022/03/21 03:20:57;;;;;;;15.70;9.32;;;;;;;7.90;82.70;101058.56;5001705;28;20064;-88
2022/03/21 03:23:25;;;;;;;14.82;10.07;;;;;;;7.89;82.74;101064.84;5001434;28;20061;-88
2022/03/21 03:26:01;;;;;;;13.48;9.48;;;;;;;7.87;82.47;101068.53;5016846;28;20034;-88
2022/03/21 03:28:26;;;;;;;19.10;9.82;;;;;;;7.83;82.72;101067.03;5000128;28;20040;-88
2022/03/21 03:30:53;;;;;;;15.60;9.70;;;;;;;7.77;82.69;101072.72;5000611;28;20643;-88
2022/03/21 03:33:19;;;;;;;12.85;9.88;;;;;;;7.76;82.89;101066.53;5001287;28;20040;-88
2022/03/21 03:35:45;;;;;;;15.07;9.90;;;;;;;7.80;82.98;101061.88;5001611;28;20038;-88
2022/03/21 03:38:10;;;;;;;13.57;9.68;;;;;;;7.78;82.39;101061.97;5003137;28;20469;-88
2022/03/21 03:40:35;;;;;;;12.80;9.35;;;;;;;7.80;82.73;101062.75;5001054;28;20050;-88
2022/03/21 03:43:01;;;;;;;13.80;9.70;;;;;;;7.83;82.18;101069.69;5001818;28;20535;-88
2022/03/21 03:45:26;;;;;;;13.63;9.63;;;;;;;7.84;82.14;101074.06;5001073;28;20391;-88
2022/03/21 03:47:52;;;;;;;13.52;9.60;;;;;;;7.83;81.32;101070.53;5001293;28;20026;-88
2022/03/21 03:50:19;;;;;;;12.80;9.75;;;;;;;7.80;82.00;101072.53;5016572;28;20128;-88
2022/03/21 03:52:47;;;;;;;13.25;9.20;;;;;;;7.79;81.30;101073.47;4999712;28;20113;-88
2022/03/21 03:55:17;;;;;;;13.55;9.57;;;;;;;7.75;81.63;101071.94;5000004;28;20053;-88
2022/03/21 03:57:46;;;;;;;12.63;9.52;;;;;;;7.70;81.56;101074.91;5000299;28;20033;-88
2022/03/21 04:00:13;;;;;;;12.90;9.15;;;;;;;7.64;81.75;101080.59;5000744;28;20396;-89
2022/03/21 04:05:22;;;;;;;13.13;9.30;;;;;;;7.61;81.51;101078.09;5031652;28;20144;-88
2022/03/21 04:07:48;;;;;;;14.05;9.85;;;;;;;7.61;81.33;101078.09;5015385;28;20539;-88
2022/03/21 04:10:14;;;;;;;14.77;10.18;;;;;;;7.62;81.11;101078.97;5016578;28;20034;-88
2022/03/21 04:12:39;;;;;;;13.45;10.45;;;;;;;7.64;81.28;101082.41;5000812;28;20029;-88
2022/03/21 04:15:07;;;;;;;13.93;9.60;;;;;;;7.64;80.97;101072.59;5001074;28;20494;-88
2022/03/21 04:17:34;;;;;;;13.93;10.25;;;;;;;7.58;80.34;101079.16;5017092;28;20395;-88
2022/03/21 04:19:59;;;;;;;13.95;10.07;;;;;;;7.54;81.20;101072.25;5000406;28;20084;-88
2022/03/21 04:22:25;;;;;;;11.98;9.50;;;;;;;7.52;81.27;101079.47;5002862;28;20056;-88
2022/03/21 04:24:50;;;;;;;13.70;9.77;;;;;;;7.54;80.84;101082.06;5001193;28;20030;-88
2022/03/21 04:27:15;;;;;;;14.07;10.27;;;;;;;7.50;80.92;101080.53;5002187;28;20042;-88
2022/03/21 04:29:40;;;;;;;12.88;9.77;;;;;;;7.49;81.12;101084.13;5000908;28;20025;-88
2022/03/21 04:32:06;;;;;;;16.95;10.13;;;;;;;7.43;81.36;101080.03;5000856;28;20072;-88
2022/03/21 04:34:31;;;;;;;13.68;10.52;;;;;;;7.44;81.39;101083.53;5017023;28;20033;-89
2022/03/21 04:36:57;;;;;;;16.85;10.13;;;;;;;7.48;81.20;101083.28;5000608;28;20120;-88
2022/03/21 04:39:22;;;;;;;12.30;9.30;;;;;;;7.45;80.65;101088.78;4999918;28;20124;-87
2022/03/21 04:41:47;;;;;;;14.32;10.10;;;;;;;7.42;80.94;101090.75;5017944;28;20061;-88
2022/03/21 04:44:13;;;;;;;14.57;9.57;;;;;;;7.44;80.84;101096.84;5000129;28;20018;-89
2022/03/21 04:46:38;;;;;;;12.07;9.07;;;;;;;7.41;80.67;101089.06;5000755;28;20476;-88
2022/03/21 04:49:05;;;;;;;13.75;9.73;;;;;;;7.36;80.50;101091.97;5016823;28;20087;-88
2022/03/21 04:51:31;;;;;;;14.30;9.55;;;;;;;7.39;80.37;101096.25;4999021;28;20061;-88
2022/03/21 04:53:56;;;;;;;12.85;9.50;;;;;;;7.42;80.46;101096.09;5016453;28;20093;-88
2022/03/21 04:56:22;;;;;;;13.38;9.75;;;;;;;7.44;80.28;101104.84;4999005;28;20068;-88
2022/03/21 04:58:48;;;;;;;13.25;10.13;;;;;;;7.41;79.98;101107.69;4999807;28;20120;-88
2022/03/21 05:01:14;;;;;;;12.32;9.68;;;;;;;7.37;79.88;101107.00;5015562;28;20044;-88
2022/03/21 05:03:39;;;;;;;13.88;10.10;;;;;;;7.33;80.01;101100.16;4999844;28;20022;-88
2022/03/21 05:06:05;;;;;;;12.25;9.30;;;;;;;7.29;79.79;101108.41;5000894;28;20071;-88
2022/03/21 05:08:31;;;;;;;13.90;9.40;;;;;;;7.25;80.42;101110.38;5017031;28;20476;-88
2022/03/21 05:10:56;;;;;;;15.18;9.52;;;;;;;7.24;80.58;101104.19;4998254;28;20038;-88
2022/03/21 05:13:22;;;;;;;13.73;9.60;;;;;;;7.27;80.59;101103.16;5015566;28;21075;-88
2022/03/21 05:15:47;;;;;;;12.23;9.40;;;;;;;7.30;80.38;101104.78;5015201;28;20044;-88
2022/03/21 05:18:12;;;;;;;12.20;9.15;;;;;;;7.27;80.21;101108.47;5000425;28;20654;-88
2022/03/21 05:20:38;;;;;;;14.32;10.10;;;;;;;7.24;80.56;101108.66;5001452;28;20514;-88
2022/03/21 05:31:15;;;;;;;13.38;9.73;;;;;;;7.19;80.16;101108.06;5017313;28;20123;-88
2022/03/21 05:36:27;;;;;;;13.70;8.75;;;;;;;7.03;80.03;101115.19;5016969;28;20037;-88
2022/03/21 05:38:53;;;;;;;12.85;9.27;;;;;;;7.08;79.94;101121.94;5018700;28;20108;-88
2022/03/21 05:41:18;;;;;;;13.43;9.40;;;;;;;7.11;80.12;101121.81;4999178;28;20179;-88
2022/03/21 05:43:44;;;;;;;12.57;9.18;;;;;;;7.12;80.11;101126.19;4998674;28;20505;-88
2022/03/21 05:46:09;;;;;;;12.63;9.45;;;;;;;7.08;79.82;101124.63;5015614;28;20029;-88
2022/03/21 05:48:50;;;;;;;15.15;10.02;;;;;;;7.11;79.77;101127.13;5000913;28;20482;-87
2022/03/21 05:51:17;;;;;;;13.57;9.48;;;;;;;7.11;79.99;101124.47;5015558;28;20056;-88
2022/03/21 05:53:42;;;;;;;14.68;10.18;;;;;;;7.08;79.68;101127.28;4999122;28;20169;-88
2022/03/21 05:56:08;;;;;;;13.18;9.77;;;;;;;7.06;79.79;101126.50;4998938;28;20526;-88
2022/03/21 05:58:33;;;;;;;13.93;9.70;;;;;;;7.10;79.91;101132.53;5016134;28;20108;-88
2022/03/21 06:00:59;;;;;;;14.25;9.52;;;;;;;7.07;80.26;101133.53;4997482;28;20034;-88
2022/03/21 06:03:24;;;;;;;13.27;9.20;;;;;;;7.11;79.90;101129.78;5016014;28;20029;-88
2022/03/21 06:05:50;;;;;;;11.82;8.45;;;;;;;7.11;80.10;101137.78;5001096;28;20034;-89
2022/03/21 06:08:16;;;;;;;13.32;9.35;;;;;;;7.13;80.33;101135.03;5014089;28;20026;-89
2022/03/21 06:10:42;;;;;;;14.18;9.45;;;;;;;7.17;80.50;101139.22;4998175;28;20544;-87
2022/03/21 06:13:08;;;;;;;12.55;9.32;;;;;;;7.19;80.34;101134.66;4998046;28;20030;-88
2022/03/21 06:15:35;;;;;;;13.25;9.10;;;;;;;7.19;80.37;101137.34;5012977;28;20093;-88
2022/03/21 06:18:01;;;;;;;12.65;9.18;;;;;;;7.16;81.18;101146.34;5013405;28;20033;-88
2022/03/21 06:20:27;;;;;;;12.57;9.23;;;;;;;7.20;81.07;101144.38;5016606;28;20116;-88
2022/03/21 06:22:52;;;;;;;11.88;9.00;;;;;;;7.24;80.92;101148.56;5015344;28;20455;-88
2022/03/21 06:25:18;;;;;;;11.35;8.82;;;;;;;7.25;80.47;101142.28;5013819;28;20038;-88
2022/03/21 06:27:44;;;;;;;14.50;9.27;;;;;;;7.24;80.74;101149.41;5016932;28;20037;-88
2022/03/21 06:30:10;;;;;;;13.65;9.63;;;;;;;7.25;80.86;101145.81;4996838;28;20018;-88
2022/03/21 06:32:36;;;;;;;15.48;12.48;;;;;;;7.28;80.77;101150.09;5018201;28;20125;-88
2022/03/21 06:35:03;;;;;;;14.85;10.05;;;;;;;7.26;81.05;101150.19;5018074;28;20029;-88
2022/03/21 06:37:29;;;;;;;13.32;9.55;;;;;;;7.26;80.70;101146.69;5016362;28;20029;-86
2022/03/21 06:39:55;;;;;;;14.77;9.95;;;;;;;7.17;81.65;101155.19;5000713;28;20037;-85
2022/03/21 06:42:21;;;;;;;14.95;10.50;;;;;;;7.17;81.92;101155.19;5000754;28;20272;-86
2022/03/21 06:44:50;;;;;;;13.70;10.10;;;;;;;7.21;82.20;101157.56;5002274;28;20044;-87
2022/03/21 06:47:17;;;;;;;14.13;10.00;;;;;;;7.21;82.33;101165.56;5001133;28;20029;-87
2022/03/21 06:49:42;;;;;;;13.73;10.98;;;;;;;7.27;82.48;101167.00;5017040;28;20476;-87
2022/03/21 06:52:08;;;;;;;14.30;9.75;;;;;;;7.33;82.92;101160.47;5000892;28;20029;-86
2022/03/21 06:54:34;;;;;;;13.77;10.23;;;;;;;7.34;82.58;101167.53;5001039;28;20107;-87
2022/03/21 06:56:59;;;;;;;12.95;10.32;;;;;;;7.36;83.09;101168.28;5001495;28;20492;-86
2022/03/21 06:59:25;;;;;;;14.05;10.27;;;;;;;7.36;83.16;101169.16;5001727;28;20037;-87
2022/03/21 07:01:50;;;;;;;16.45;11.00;;;;;;;7.41;82.71;101166.22;5001659;28;20041;-87
2022/03/21 07:04:16;;;;;;;14.23;10.77;;;;;;;7.45;83.14;101163.28;5000299;28;20045;-87
2022/03/21 07:06:41;;;;;;;17.00;10.90;;;;;;;7.43;83.32;101172.31;4999959;28;20029;-85
2022/03/21 07:09:06;;;;;;;19.40;11.50;;;;;;;7.43;83.34;101175.84;5001017;28;20025;-86
2022/03/21 07:11:34;;;;;;;15.65;11.23;;;;;;;7.45;84.35;101178.41;5001204;28;20029;-86
2022/03/21 07:14:00;;;;;;;18.42;12.02;;;;;;;7.46;83.81;101177.47;5015750;28;20568;-85
2022/03/21 07:16:26;;;;;;;15.18;11.32;;;;;;;7.50;84.19;101176.34;5016979;28;20029;-86
2022/03/21 07:18:51;;;;;;;17.80;11.85;;;;;;;7.52;83.82;101180.63;5002573;28;20021;-87
2022/03/21 07:21:16;;;;;;;16.45;11.65;;;;;;;7.55;83.91;101179.59;5001725;28;20045;-84
2022/03/21 07:23:42;;;;;;;14.50;11.15;;;;;;;7.56;84.11;101176.84;5002601;28;20044;-86
2022/03/21 07:26:08;;;;;;;17.40;11.52;;;;;;;7.60;84.23;101188.19;4999866;28;20981;-86
2022/03/21 07:28:34;;;;;;;19.05;11.68;;;;;;;7.62;84.34;101185.44;5002874;28;20026;-86
2022/03/21 07:30:59;;;;;;;18.15;11.85;;;;;;;7.65;84.35;101182.59;5000321;28;20052;-86
2022/03/21 07:33:24;;;;;;;17.00;12.18;;;;;;;7.69;84.68;101184.13;5003099;28;20116;-86
2022/03/21 07:35:50;;;;;;;17.60;11.60;;;;;;;7.71;84.27;101183.09;5000246;28;20061;-86
2022/03/21 07:38:18;;;;;;;16.92;12.45;;;;;;;7.73;84.31;101183.88;5017966;28;20064;-85
2022/03/21 07:40:46;;;;;;;18.83;13.18;;;;;;;7.78;85.11;101191.59;5000366;28;20053;-86
2022/03/21 07:43:12;;;;;;;25.63;14.95;;;;;;;7.82;84.99;101187.78;5001280;28;20037;-86
2022/03/21 07:48:21;;;;;;;24.13;13.68;;;;;;;7.90;84.84;101180.22;5017903;28;20052;-89
2022/03/21 07:50:47;;;;;;;19.10;13.77;;;;;;;7.93;85.00;101188.00;5002669;28;20041;-90
2022/03/21 07:53:12;;;;;;;18.13;13.35;;;;;;;8.00;84.84;101193.84;5000668;28;20026;-89
2022/03/21 07:55:37;;;;;;;19.00;12.77;;;;;;;8.04;85.12;101192.69;5001769;28;20471;-89
2022/03/21 07:58:04;;;;;;;17.88;12.77;;;;;;;8.05;84.26;101195.31;5019430;28;20978;-89
2022/03/21 08:00:31;;;;;;;20.95;13.48;;;;;;;8.12;84.63;101193.13;5001180;28;20029;-89
2022/03/21 08:02:58;;;;;;;21.67;14.25;;;;;;;8.13;84.31;101195.69;5002016;28;20041;-89
2022/03/21 08:05:24;;;;;;;21.30;14.88;;;;;;;8.13;84.36;101192.19;5002179;28;20021;-90
2022/03/21 08:07:51;;;;;;;20.52;14.57;;;;;;;8.13;84.31;101194.84;5003241;28;20028;-90
2022/03/21 08:10:18;;;;;;;20.75;13.90;;;;;;;8.14;84.04;101194.75;5017284;28;20445;-89
2022/03/21 08:12:46;;;;;;;22.83;15.60;;;;;;;8.15;84.49;101196.47;5000996;28;20030;-89
2022/03/21 08:15:12;;;;;;;22.00;15.35;;;;;;;8.18;84.16;101200.75;5000219;28;20040;-89
2022/03/21 08:17:56;;;;;;;20.48;14.93;;;;;;;8.21;84.54;101195.25;5001844;28;20902;-90
2022/03/21 08:20:22;;;;;;;25.13;16.02;;;;;;;8.24;84.55;101194.19;5017221;28;20042;-89
2022/03/21 08:22:48;;;;;;;30.77;19.63;;;;;;;8.26;84.67;101198.47;4999800;28;20994;-89
2022/03/21 08:25:17;;;;;;;24.15;17.15;;;;;;;8.29;84.56;101202.78;4999113;28;20055;-89
2022/03/21 08:27:43;;;;;;;20.05;14.43;;;;;;;8.29;84.61;101197.44;5001185;28;20040;-89
2022/03/21 08:30:11;;;;;;;20.30;13.75;;;;;;;8.29;84.78;101200.97;5001563;28;20083;-89
2022/03/21 08:32:36;;;;;;;19.45;13.23;;;;;;;8.31;85.13;101201.72;5001178;28;20066;-89
2022/03/21 08:35:02;;;;;;;20.10;13.98;;;;;;;8.36;84.92;101204.16;5000566;28;20045;-89
2022/03/21 08:37:27;;;;;;;20.05;13.85;;;;;;;8.39;84.92;101196.81;5000476;28;20506;-88
2022/03/21 08:39:52;;;;;;;20.67;14.07;;;;;;;8.40;85.08;101213.66;5002276;28;20075;-89
2022/03/21 08:42:17;;;;;;;21.35;13.60;;;;;;;8.41;85.28;101202.06;4999402;28;20034;-89
2022/03/21 08:44:43;;;;;;;18.23;13.98;;;;;;;8.43;85.04;101200.16;4999975;28;20025;-89
2022/03/21 08:47:08;;;;;;;19.50;14.10;;;;;;;8.46;85.36;101200.81;5016315;28;20395;-89
2022/03/21 08:49:37;;;;;;;19.65;13.27;;;;;;;8.48;84.80;101209.59;5000782;28;20436;-89
2022/03/21 08:52:03;;;;;;;19.40;13.43;;;;;;;8.54;85.10;101202.19;5001021;28;20128;-89
2022/03/21 08:54:29;;;;;;;19.65;13.77;;;;;;;8.57;85.65;101196.66;5017077;28;20057;-89
2022/03/21 08:56:54;;;;;;;19.13;13.75;;;;;;;8.60;85.45;101199.16;5000760;28;20135;-89
2022/03/21 08:59:20;;;;;;;20.15;13.52;;;;;;;8.65;85.94;101199.72;4999966;28;20149;-86
2022/03/21 09:01:46;;;;;;;23.50;15.02;;;;;;;8.69;86.14;101199.44;5017088;28;20537;-89
2022/03/21 09:04:12;;;;;;;21.60;14.95;;;;;;;8.66;86.23;101202.28;4999112;28;20030;-88
2022/03/21 09:06:38;;;;;;;19.25;14.18;;;;;;;8.67;86.10;101198.66;5012209;28;20376;-88
2022/03/21 09:09:03;;;;;;;17.63;13.55;;;;;;;8.66;86.42;101207.63;4998616;28;20044;-89
2022/03/21 09:11:28;;;;;;;20.25;14.38;;;;;;;8.70;86.34;101206.47;5014831;28;20025;-89
2022/03/21 09:13:54;;;;;;;19.83;13.13;;;;;;;8.77;86.21;101204.28;5001427;28;20122;-88
2022/03/21 09:16:19;;;;;;;20.75;14.43;;;;;;;8.82;86.31;101204.84;4999687;28;20029;-89
2022/03/21 09:18:44;;;;;;;17.00;13.02;;;;;;;8.82;86.71;101208.38;5016679;28;20144;-88
2022/03/21 09:21:11;;;;;;;16.90;12.48;;;;;;;8.85;86.29;101215.31;5015116;28;20104;-88
2022/03/21 09:23:37;;;;;;;17.92;12.95;;;;;;;8.90;86.57;101215.03;5008221;28;20037;-87
2022/03/21 09:26:04;;;;;;;17.98;13.05;;;;;;;8.90;86.12;101207.88;4999824;28;20029;-88
2022/03/21 09:28:30;;;;;;;19.88;13.55;;;;;;;8.91;86.22;101206.94;5016996;28;20442;-88
2022/03/21 09:30:55;;;;;;;17.27;12.82;;;;;;;8.94;86.32;101205.88;4998306;28;20029;-88
2022/03/21 09:33:21;;;;;;;17.92;12.35;;;;;;;8.97;86.22;101211.88;4998982;28;20029;-88
2022/03/21 09:35:47;;;;;;;21.40;14.70;;;;;;;8.99;86.42;101203.81;4998872;28;20467;-88
2022/03/21 09:38:14;;;;;;;20.33;14.88;;;;;;;8.99;86.83;101199.34;5000214;28;20120;-89
2022/03/21 09:40:41;;;;;;;20.83;13.73;;;;;;;9.08;86.68;101196.06;5016690;28;20117;-88
2022/03/21 09:43:10;;;;;;;21.52;14.57;;;;;;;9.04;86.61;101202.56;4998548;28;20120;-87
2022/03/21 09:45:36;;;;;;;23.88;14.88;;;;;;;9.07;86.96;101198.84;4999682;28;20072;-87
2022/03/21 09:48:09;;;;;;;20.67;14.68;;;;;;;9.13;87.29;101195.78;5001133;28;20041;-88
2022/03/21 09:50:36;;;;;;;26.20;15.07;;;;;;;9.14;87.25;101206.34;4998308;28;20064;-88
2022/03/21 09:53:03;;;;;;;22.92;14.43;;;;;;;9.22;87.17;101192.53;5013394;28;20099;-88
2022/03/21 09:55:28;;;;;;;22.67;14.07;;;;;;;9.27;87.25;101200.22;5012036;28;20049;-88
2022/03/21 09:57:53;;;;;;;21.60;14.52;;;;;;;9.33;87.60;101194.50;5015906;28;20034;-89
2022/03/21 10:00:19;;;;;;;21.40;14.70;;;;;;;9.33;86.77;101199.84;4998954;28;20124;-88
2022/03/21 10:02:44;;;;;;;19.83;13.77;;;;;;;9.32;86.92;101192.78;4998381;28;20060;-89
2022/03/21 10:05:29;;;;;;;23.10;14.88;;;;;;;9.31;86.78;101188.41;4998477;28;20121;-88
2022/03/21 10:08:19;;;;;;;18.58;13.43;;;;;;;9.25;86.56;101192.31;5019354;28;20033;-89
2022/03/21 10:10:54;;;;;;;19.15;12.27;;;;;;;9.25;86.14;101192.31;5018119;28;20594;-88
2022/03/21 10:13:25;;;;;;;19.38;13.98;;;;;;;9.27;86.95;101185.06;5036410;28;20038;-89
2022/03/21 10:16:13;;;;;;;18.67;14.02;;;;;;;9.31;87.00;101189.25;5003237;28;20037;-88
2022/03/21 10:18:57;;;;;;;21.63;13.00;;;;;;;9.29;87.06;101183.16;5018272;28;20040;-89
2022/03/21 10:21:26;;;;;;;16.45;12.50;;;;;;;9.31;87.06;101178.56;5001426;28;20136;-89
2022/03/21 10:24:07;;;;;;;;;;;;;;;9.34;87.04;101183.72;5001598;28;20029;-89
2022/03/21 10:26:44;;;;;;;21.88;13.70;;;;;;;9.41;87.09;101181.50;5002871;28;20378;-88
2022/03/21 10:29:11;;;;;;;23.75;14.48;;;;;;;9.42;87.47;101180.53;5002703;28;20072;-88
2022/03/21 10:31:45;;;;;;;17.25;12.75;;;;;;;9.42;87.40;101183.22;5019359;28;20029;-89
2022/03/21 10:34:22;;;;;;;16.50;12.07;;;;;;;9.43;86.93;101168.91;5002793;28;20100;-89
2022/03/21 10:37:08;;;;;;;15.65;12.13;;;;;;;9.45;87.10;101175.00;5019228;28;20033;-89
2022/03/21 10:39:36;;;;;;;16.65;12.05;;;;;;;9.45;86.98;101175.84;5020075;28;20159;-88
2022/03/21 10:42:04;;;;;;;14.43;11.27;;;;;;;9.46;86.80;101168.72;5003221;28;20041;-88
2022/03/21 10:44:30;;;;;;;15.90;11.65;;;;;;;9.48;86.58;101174.81;5019983;28;20794;-89
2022/03/21 10:46:59;;;;;;;15.48;12.07;;;;;;;9.53;86.61;101172.72;5019401;28;20030;-89
2022/03/21 10:49:29;;;;;;;;;;;;;;;9.63;87.12;101171.13;5018436;28;20682;-88
2022/03/21 10:51:55;;;;;;;13.75;9.88;;;;;;;9.68;86.71;101169.00;5003085;28;19943;-88
2022/03/21 10:54:41;;;;;;;13.43;9.43;;;;;;;9.63;86.08;101164.94;5001873;28;20057;-89
2022/03/21 10:57:28;;;;;;;12.35;9.05;;;;;;;9.62;85.80;101166.75;5002547;28;20037;-89
2022/03/21 11:00:13;;;;;;;13.38;9.60;;;;;;;9.63;85.62;101165.78;5018764;28;20069;-88
2022/03/21 11:02:51;;;;;;;14.68;10.15;;;;;;;9.66;85.83;101162.06;5002829;28;20090;-87
2022/03/21 11:05:18;;;;;;;12.68;9.77;;;;;;;9.66;85.64;101162.06;5017266;28;20054;-89
2022/03/21 11:07:45;;;;;;;12.20;9.27;;;;;;;9.67;85.57;101156.63;5010096;28;20079;-89
2022/03/21 11:10:10;;;;;;;12.98;9.63;;;;;;;9.88;84.55;101158.81;5002598;28;20026;-88
2022/03/21 11:12:37;;;;;;;13.25;9.88;;;;;;;9.83;84.43;101150.25;5001607;28;20036;-89
2022/03/21 11:15:05;;;;;;;11.35;9.07;;;;;;;9.82;84.94;101153.88;5017864;28;20022;-88
2022/03/21 11:17:32;;;;;;;13.30;9.25;;;;;;;9.78;84.69;101154.09;4998371;28;20569;-88
2022/03/21 11:19:58;;;;;;;11.85;8.95;;;;;;;9.79;84.21;101150.44;4999632;28;20036;-88
2022/03/21 11:22:23;;;;;;;12.57;8.95;;;;;;;9.81;84.56;101150.34;5007432;28;20052;-89
2022/03/21 11:24:48;;;;;;;36.58;12.00;;;;;;;9.90;84.44;101152.38;5000733;28;20057;-89
2022/03/21 11:27:42;;;;;;;12.55;9.27;;;;;;;10.02;83.71;101150.72;4998686;28;20072;-89
2022/03/21 11:30:23;;;;;;;11.88;8.70;;;;;;;10.16;82.45;101139.94;5016466;28;20085;-89
2022/03/21 11:33:00;;;;;;;11.73;9.20;;;;;;;10.17;82.92;101146.13;5016227;28;20060;-88
2022/03/21 11:35:28;;;;;;;11.25;9.05;;;;;;;10.18;83.30;101148.69;5000192;28;20026;-88
2022/03/21 11:38:14;;;;;;;12.30;9.23;;;;;;;10.16;83.45;101142.59;4998490;28;20038;-89